sim
Sign-in with your pilot id or email,
or register
Callsign
Passwort

Schedule Details

Flight Number: GEC8472 (1C)
Departure: Frankfurt Airport (EDDF) at 19:25
Arrival: Mumbai Chhatrapati Shivaji International Airport (VABB) at 03:25
Route: Lufthansa Cargo Cargo Schedule. Enter filed route here before submitting Pirep.

Weather Information
Getting current METAR information for EDDF 191850Z 29006KT 180V320 CAVOK 19/11 Q1018 NOSIG
Getting current METAR information for VABB 191900Z 27007KT 3500 HZ FEW020 SCT025 28/25 Q1010 BECMG 3000 HZ

Schedule Frequency

Route Map